sensor_id;sensor_type;location;lat;lon;timestamp;P1;durP1;ratioP1;P2;durP2;ratioP2
1475;SDS011;730;48.870;12.542;2024-01-30T00:02:13;24.90;;;17.55;;
1475;SDS011;730;48.870;12.542;2024-01-30T00:04:39;21.83;;;17.13;;
1475;SDS011;730;48.870;12.542;2024-01-30T00:07:05;27.33;;;17.70;;
1475;SDS011;730;48.870;12.542;2024-01-30T00:09:31;17.90;;;14.73;;
1475;SDS011;730;48.870;12.542;2024-01-30T00:11:57;22.33;;;16.52;;
1475;SDS011;730;48.870;12.542;2024-01-30T00:14:23;22.63;;;18.15;;
1475;SDS011;730;48.870;12.542;2024-01-30T00:16:50;18.05;;;15.48;;
1475;SDS011;730;48.870;12.542;2024-01-30T00:19:16;22.83;;;16.52;;
1475;SDS011;730;48.870;12.542;2024-01-30T00:21:43;17.58;;;15.68;;
1475;SDS011;730;48.870;12.542;2024-01-30T00:24:09;18.63;;;16.02;;
1475;SDS011;730;48.870;12.542;2024-01-30T00:26:35;19.73;;;14.90;;
1475;SDS011;730;48.870;12.542;2024-01-30T00:29:01;19.77;;;16.13;;
1475;SDS011;730;48.870;12.542;2024-01-30T00:31:27;20.13;;;15.77;;
1475;SDS011;730;48.870;12.542;2024-01-30T00:33:54;18.50;;;16.45;;
1475;SDS011;730;48.870;12.542;2024-01-30T00:36:21;20.00;;;16.15;;
1475;SDS011;730;48.870;12.542;2024-01-30T00:38:47;17.42;;;14.77;;
1475;SDS011;730;48.870;12.542;2024-01-30T00:41:13;17.35;;;14.65;;
1475;SDS011;730;48.870;12.542;2024-01-30T00:43:40;17.50;;;15.48;;
1475;SDS011;730;48.870;12.542;2024-01-30T00:46:06;19.85;;;15.50;;
1475;SDS011;730;48.870;12.542;2024-01-30T00:48:32;15.23;;;13.68;;
1475;SDS011;730;48.870;12.542;2024-01-30T00:50:58;16.63;;;14.05;;
1475;SDS011;730;48.870;12.542;2024-01-30T00:53:24;20.52;;;14.55;;
1475;SDS011;730;48.870;12.542;2024-01-30T00:55:50;15.32;;;13.70;;
1475;SDS011;730;48.870;12.542;2024-01-30T00:58:16;15.38;;;13.77;;
1475;SDS011;730;48.870;12.542;2024-01-30T01:00:42;15.82;;;13.18;;
1475;SDS011;730;48.870;12.542;2024-01-30T01:03:08;16.25;;;14.10;;
1475;SDS011;730;48.870;12.542;2024-01-30T01:05:34;17.67;;;12.90;;
1475;SDS011;730;48.870;12.542;2024-01-30T01:08:00;15.30;;;12.70;;
1475;SDS011;730;48.870;12.542;2024-01-30T01:10:26;14.38;;;12.88;;
1475;SDS011;730;48.870;12.542;2024-01-30T01:12:53;14.35;;;12.50;;
1475;SDS011;730;48.870;12.542;2024-01-30T01:15:20;17.23;;;12.80;;
1475;SDS011;730;48.870;12.542;2024-01-30T01:17:46;14.13;;;12.23;;
1475;SDS011;730;48.870;12.542;2024-01-30T01:20:12;13.93;;;12.15;;
1475;SDS011;730;48.870;12.542;2024-01-30T01:22:38;13.70;;;12.27;;
1475;SDS011;730;48.870;12.542;2024-01-30T01:25:04;17.50;;;11.65;;
1475;SDS011;730;48.870;12.542;2024-01-30T01:27:34;13.75;;;11.35;;
1475;SDS011;730;48.870;12.542;2024-01-30T01:30:04;16.48;;;12.52;;
1475;SDS011;730;48.870;12.542;2024-01-30T01:32:31;14.32;;;11.70;;
1475;SDS011;730;48.870;12.542;2024-01-30T01:34:57;14.80;;;12.68;;
1475;SDS011;730;48.870;12.542;2024-01-30T01:37:23;15.13;;;11.90;;
1475;SDS011;730;48.870;12.542;2024-01-30T01:39:52;17.15;;;14.05;;
1475;SDS011;730;48.870;12.542;2024-01-30T01:42:18;13.45;;;12.05;;
1475;SDS011;730;48.870;12.542;2024-01-30T01:44:44;18.40;;;12.32;;
1475;SDS011;730;48.870;12.542;2024-01-30T01:47:10;20.40;;;13.35;;
1475;SDS011;730;48.870;12.542;2024-01-30T01:49:36;19.42;;;13.05;;
1475;SDS011;730;48.870;12.542;2024-01-30T01:52:03;15.63;;;11.73;;
1475;SDS011;730;48.870;12.542;2024-01-30T01:54:30;18.63;;;12.18;;
1475;SDS011;730;48.870;12.542;2024-01-30T01:56:56;13.18;;;11.13;;
1475;SDS011;730;48.870;12.542;2024-01-30T01:59:23;14.60;;;12.60;;
1475;SDS011;730;48.870;12.542;2024-01-30T02:01:50;14.43;;;12.57;;
1475;SDS011;730;48.870;12.542;2024-01-30T02:04:17;15.32;;;11.30;;
1475;SDS011;730;48.870;12.542;2024-01-30T02:06:43;16.33;;;11.68;;
1475;SDS011;730;48.870;12.542;2024-01-30T02:09:09;14.43;;;12.57;;
1475;SDS011;730;48.870;12.542;2024-01-30T02:11:35;14.50;;;11.90;;
1475;SDS011;730;48.870;12.542;2024-01-30T02:14:02;17.02;;;12.90;;
1475;SDS011;730;48.870;12.542;2024-01-30T02:16:29;17.85;;;12.65;;
1475;SDS011;730;48.870;12.542;2024-01-30T02:18:55;15.30;;;13.38;;
1475;SDS011;730;48.870;12.542;2024-01-30T02:21:21;15.55;;;12.30;;
1475;SDS011;730;48.870;12.542;2024-01-30T02:23:49;17.00;;;12.93;;
1475;SDS011;730;48.870;12.542;2024-01-30T02:26:22;13.60;;;12.20;;
1475;SDS011;730;48.870;12.542;2024-01-30T02:28:48;16.95;;;12.32;;
1475;SDS011;730;48.870;12.542;2024-01-30T02:31:14;13.60;;;12.20;;
1475;SDS011;730;48.870;12.542;2024-01-30T02:33:40;17.02;;;13.10;;
1475;SDS011;730;48.870;12.542;2024-01-30T02:36:06;17.50;;;12.93;;
1475;SDS011;730;48.870;12.542;2024-01-30T02:38:33;13.90;;;12.35;;
1475;SDS011;730;48.870;12.542;2024-01-30T02:40:59;13.20;;;11.07;;
1475;SDS011;730;48.870;12.542;2024-01-30T02:43:25;16.48;;;12.70;;
1475;SDS011;730;48.870;12.542;2024-01-30T02:45:51;19.25;;;12.30;;
1475;SDS011;730;48.870;12.542;2024-01-30T02:48:21;17.40;;;12.45;;
1475;SDS011;730;48.870;12.542;2024-01-30T02:50:47;15.02;;;11.80;;
1475;SDS011;730;48.870;12.542;2024-01-30T02:53:13;15.75;;;12.82;;
1475;SDS011;730;48.870;12.542;2024-01-30T02:55:39;13.30;;;11.00;;
1475;SDS011;730;48.870;12.542;2024-01-30T02:58:05;14.48;;;11.88;;
1475;SDS011;730;48.870;12.542;2024-01-30T03:00:32;14.20;;;12.10;;
1475;SDS011;730;48.870;12.542;2024-01-30T03:02:58;13.45;;;11.50;;
1475;SDS011;730;48.870;12.542;2024-01-30T03:05:24;15.10;;;12.38;;
1475;SDS011;730;48.870;12.542;2024-01-30T03:07:50;15.95;;;12.35;;
1475;SDS011;730;48.870;12.542;2024-01-30T03:10:16;16.75;;;13.60;;
1475;SDS011;730;48.870;12.542;2024-01-30T03:12:42;15.73;;;11.73;;
1475;SDS011;730;48.870;12.542;2024-01-30T03:15:09;13.38;;;11.95;;
1475;SDS011;730;48.870;12.542;2024-01-30T03:17:35;16.02;;;13.10;;
1475;SDS011;730;48.870;12.542;2024-01-30T03:20:02;15.05;;;12.27;;
1475;SDS011;730;48.870;12.542;2024-01-30T03:22:29;14.38;;;11.52;;
1475;SDS011;730;48.870;12.542;2024-01-30T03:24:55;13.02;;;11.68;;
1475;SDS011;730;48.870;12.542;2024-01-30T03:27:21;18.05;;;12.43;;
1475;SDS011;730;48.870;12.542;2024-01-30T03:29:47;21.13;;;12.98;;
1475;SDS011;730;48.870;12.542;2024-01-30T03:32:13;16.00;;;12.85;;
1475;SDS011;730;48.870;12.542;2024-01-30T03:34:39;16.67;;;12.15;;
1475;SDS011;730;48.870;12.542;2024-01-30T03:37:05;18.05;;;12.38;;
1475;SDS011;730;48.870;12.542;2024-01-30T03:39:31;16.30;;;13.27;;
1475;SDS011;730;48.870;12.542;2024-01-30T03:41:57;17.85;;;12.98;;
1475;SDS011;730;48.870;12.542;2024-01-30T03:44:26;15.85;;;11.95;;
1475;SDS011;730;48.870;12.542;2024-01-30T03:46:52;14.05;;;11.93;;
1475;SDS011;730;48.870;12.542;2024-01-30T03:49:18;15.00;;;12.30;;
1475;SDS011;730;48.870;12.542;2024-01-30T03:51:44;16.48;;;12.25;;
1475;SDS011;730;48.870;12.542;2024-01-30T03:54:12;16.17;;;12.30;;
1475;SDS011;730;48.870;12.542;2024-01-30T03:56:38;17.23;;;12.20;;
1475;SDS011;730;48.870;12.542;2024-01-30T03:59:04;14.00;;;11.50;;
1475;SDS011;730;48.870;12.542;2024-01-30T04:01:30;13.98;;;11.85;;
1475;SDS011;730;48.870;12.542;2024-01-30T04:03:56;13.77;;;12.15;;
1475;SDS011;730;48.870;12.542;2024-01-30T04:06:23;16.27;;;12.00;;
1475;SDS011;730;48.870;12.542;2024-01-30T04:08:49;13.00;;;11.60;;
1475;SDS011;730;48.870;12.542;2024-01-30T04:11:17;17.92;;;12.55;;
1475;SDS011;730;48.870;12.542;2024-01-30T04:13:44;14.60;;;11.80;;
1475;SDS011;730;48.870;12.542;2024-01-30T04:16:31;15.32;;;11.88;;
1475;SDS011;730;48.870;12.542;2024-01-30T04:18:57;13.60;;;11.70;;
1475;SDS011;730;48.870;12.542;2024-01-30T04:21:24;17.50;;;12.20;;
1475;SDS011;730;48.870;12.542;2024-01-30T04:23:51;15.57;;;12.45;;
1475;SDS011;730;48.870;12.542;2024-01-30T04:26:17;16.77;;;12.60;;
1475;SDS011;730;48.870;12.542;2024-01-30T04:28:46;12.40;;;11.07;;
1475;SDS011;730;48.870;12.542;2024-01-30T04:31:12;12.43;;;11.25;;
1475;SDS011;730;48.870;12.542;2024-01-30T04:33:38;14.50;;;11.80;;
1475;SDS011;730;48.870;12.542;2024-01-30T04:36:07;13.45;;;10.68;;
1475;SDS011;730;48.870;12.542;2024-01-30T04:38:35;13.07;;;10.73;;
1475;SDS011;730;48.870;12.542;2024-01-30T04:41:01;16.33;;;10.63;;
1475;SDS011;730;48.870;12.542;2024-01-30T04:43:27;12.27;;;10.45;;
1475;SDS011;730;48.870;12.542;2024-01-30T04:45:53;15.70;;;11.25;;
1475;SDS011;730;48.870;12.542;2024-01-30T04:48:19;15.23;;;10.82;;
1475;SDS011;730;48.870;12.542;2024-01-30T04:50:45;16.05;;;10.98;;
1475;SDS011;730;48.870;12.542;2024-01-30T04:53:11;15.32;;;10.95;;
1475;SDS011;730;48.870;12.542;2024-01-30T04:55:37;12.25;;;10.95;;
1475;SDS011;730;48.870;12.542;2024-01-30T04:58:04;13.50;;;11.48;;
1475;SDS011;730;48.870;12.542;2024-01-30T05:00:30;12.55;;;11.25;;
1475;SDS011;730;48.870;12.542;2024-01-30T05:02:56;12.88;;;11.70;;
1475;SDS011;730;48.870;12.542;2024-01-30T05:05:22;12.82;;;10.90;;
1475;SDS011;730;48.870;12.542;2024-01-30T05:07:48;11.68;;;10.48;;
1475;SDS011;730;48.870;12.542;2024-01-30T05:10:14;14.40;;;11.55;;
1475;SDS011;730;48.870;12.542;2024-01-30T05:12:40;17.17;;;12.40;;
1475;SDS011;730;48.870;12.542;2024-01-30T05:15:06;16.80;;;11.95;;
1475;SDS011;730;48.870;12.542;2024-01-30T05:17:33;16.63;;;11.80;;
1475;SDS011;730;48.870;12.542;2024-01-30T05:19:59;17.90;;;13.30;;
1475;SDS011;730;48.870;12.542;2024-01-30T05:22:25;14.73;;;11.68;;
1475;SDS011;730;48.870;12.542;2024-01-30T05:24:51;13.00;;;11.60;;
1475;SDS011;730;48.870;12.542;2024-01-30T05:27:17;15.73;;;11.93;;
1475;SDS011;730;48.870;12.542;2024-01-30T05:29:43;14.25;;;12.85;;
1475;SDS011;730;48.870;12.542;2024-01-30T05:32:09;18.00;;;12.95;;
1475;SDS011;730;48.870;12.542;2024-01-30T05:34:36;19.42;;;11.43;;
1475;SDS011;730;48.870;12.542;2024-01-30T05:37:02;13.90;;;11.38;;
1475;SDS011;730;48.870;12.542;2024-01-30T05:39:29;18.08;;;12.52;;
1475;SDS011;730;48.870;12.542;2024-01-30T05:41:55;14.30;;;12.30;;
1475;SDS011;730;48.870;12.542;2024-01-30T05:44:21;13.95;;;12.27;;
1475;SDS011;730;48.870;12.542;2024-01-30T05:46:47;14.27;;;12.80;;
1475;SDS011;730;48.870;12.542;2024-01-30T05:49:13;19.38;;;11.55;;
1475;SDS011;730;48.870;12.542;2024-01-30T05:51:44;12.77;;;10.88;;
1475;SDS011;730;48.870;12.542;2024-01-30T05:54:10;13.00;;;11.63;;
1475;SDS011;730;48.870;12.542;2024-01-30T05:56:36;13.30;;;11.60;;
1475;SDS011;730;48.870;12.542;2024-01-30T05:59:02;13.43;;;11.82;;
1475;SDS011;730;48.870;12.542;2024-01-30T06:01:29;17.52;;;11.48;;
1475;SDS011;730;48.870;12.542;2024-01-30T06:03:55;12.85;;;11.55;;
1475;SDS011;730;48.870;12.542;2024-01-30T06:06:21;15.90;;;11.82;;
1475;SDS011;730;48.870;12.542;2024-01-30T06:08:47;16.60;;;12.73;;
1475;SDS011;730;48.870;12.542;2024-01-30T06:11:13;14.07;;;12.45;;
1475;SDS011;730;48.870;12.542;2024-01-30T06:13:39;16.73;;;12.77;;
1475;SDS011;730;48.870;12.542;2024-01-30T06:16:08;17.40;;;13.95;;
1475;SDS011;730;48.870;12.542;2024-01-30T06:18:35;15.60;;;13.15;;
1475;SDS011;730;48.870;12.542;2024-01-30T06:21:02;16.67;;;13.60;;
1475;SDS011;730;48.870;12.542;2024-01-30T06:23:28;27.02;;;18.35;;
1475;SDS011;730;48.870;12.542;2024-01-30T06:25:54;20.88;;;16.05;;
1475;SDS011;730;48.870;12.542;2024-01-30T06:28:21;19.77;;;15.88;;
1475;SDS011;730;48.870;12.542;2024-01-30T06:30:47;20.30;;;16.30;;
1475;SDS011;730;48.870;12.542;2024-01-30T06:33:13;16.48;;;14.75;;
1475;SDS011;730;48.870;12.542;2024-01-30T06:35:40;19.23;;;15.27;;
1475;SDS011;730;48.870;12.542;2024-01-30T06:38:06;14.93;;;13.32;;
1475;SDS011;730;48.870;12.542;2024-01-30T06:40:32;18.02;;;14.13;;
1475;SDS011;730;48.870;12.542;2024-01-30T06:42:58;18.55;;;13.93;;
1475;SDS011;730;48.870;12.542;2024-01-30T06:45:24;18.92;;;15.20;;
1475;SDS011;730;48.870;12.542;2024-01-30T06:47:50;18.88;;;15.25;;
1475;SDS011;730;48.870;12.542;2024-01-30T06:50:16;17.45;;;14.43;;
1475;SDS011;730;48.870;12.542;2024-01-30T06:52:42;23.20;;;15.02;;
1475;SDS011;730;48.870;12.542;2024-01-30T06:55:09;23.65;;;15.50;;
1475;SDS011;730;48.870;12.542;2024-01-30T06:57:35;19.95;;;15.40;;
1475;SDS011;730;48.870;12.542;2024-01-30T07:00:01;17.67;;;14.48;;
1475;SDS011;730;48.870;12.542;2024-01-30T07:02:27;19.92;;;14.30;;
1475;SDS011;730;48.870;12.542;2024-01-30T07:04:53;20.48;;;15.50;;
1475;SDS011;730;48.870;12.542;2024-01-30T07:07:19;16.88;;;15.07;;
1475;SDS011;730;48.870;12.542;2024-01-30T07:09:45;18.73;;;14.52;;
1475;SDS011;730;48.870;12.542;2024-01-30T07:12:13;20.00;;;15.43;;
1475;SDS011;730;48.870;12.542;2024-01-30T07:14:39;19.58;;;16.10;;
1475;SDS011;730;48.870;12.542;2024-01-30T07:17:05;20.02;;;16.40;;
1475;SDS011;730;48.870;12.542;2024-01-30T07:19:31;18.75;;;16.50;;
1475;SDS011;730;48.870;12.542;2024-01-30T07:21:57;19.85;;;16.50;;
1475;SDS011;730;48.870;12.542;2024-01-30T07:24:23;23.65;;;16.20;;
1475;SDS011;730;48.870;12.542;2024-01-30T07:26:49;21.40;;;17.77;;
1475;SDS011;730;48.870;12.542;2024-01-30T07:29:15;19.52;;;15.50;;
1475;SDS011;730;48.870;12.542;2024-01-30T07:31:41;16.55;;;14.82;;
1475;SDS011;730;48.870;12.542;2024-01-30T07:34:08;20.27;;;16.58;;
1475;SDS011;730;48.870;12.542;2024-01-30T07:36:34;19.75;;;16.63;;
1475;SDS011;730;48.870;12.542;2024-01-30T07:39:00;16.55;;;14.15;;
1475;SDS011;730;48.870;12.542;2024-01-30T07:41:26;18.50;;;14.43;;
1475;SDS011;730;48.870;12.542;2024-01-30T07:43:52;16.30;;;14.20;;
1475;SDS011;730;48.870;12.542;2024-01-30T07:46:19;19.70;;;13.88;;
1475;SDS011;730;48.870;12.542;2024-01-30T07:48:46;17.20;;;15.30;;
1475;SDS011;730;48.870;12.542;2024-01-30T07:51:13;16.98;;;14.70;;
1475;SDS011;730;48.870;12.542;2024-01-30T07:53:39;15.20;;;13.60;;
1475;SDS011;730;48.870;12.542;2024-01-30T07:56:05;16.38;;;14.68;;
1475;SDS011;730;48.870;12.542;2024-01-30T07:58:31;19.48;;;15.73;;
1475;SDS011;730;48.870;12.542;2024-01-30T08:00:57;16.73;;;14.98;;
1475;SDS011;730;48.870;12.542;2024-01-30T08:03:24;16.80;;;14.57;;
1475;SDS011;730;48.870;12.542;2024-01-30T08:05:50;16.40;;;13.60;;
1475;SDS011;730;48.870;12.542;2024-01-30T08:08:16;16.35;;;14.55;;
1475;SDS011;730;48.870;12.542;2024-01-30T08:10:42;18.38;;;14.25;;
1475;SDS011;730;48.870;12.542;2024-01-30T08:13:08;18.17;;;15.07;;
1475;SDS011;730;48.870;12.542;2024-01-30T08:15:34;18.75;;;14.10;;
1475;SDS011;730;48.870;12.542;2024-01-30T08:18:00;19.38;;;15.55;;
1475;SDS011;730;48.870;12.542;2024-01-30T08:20:26;15.90;;;14.23;;
1475;SDS011;730;48.870;12.542;2024-01-30T08:22:57;18.10;;;13.77;;
1475;SDS011;730;48.870;12.542;2024-01-30T08:25:25;15.98;;;13.50;;
1475;SDS011;730;48.870;12.542;2024-01-30T08:27:52;17.05;;;14.07;;
1475;SDS011;730;48.870;12.542;2024-01-30T08:30:18;19.25;;;14.88;;
1475;SDS011;730;48.870;12.542;2024-01-30T08:32:45;16.70;;;14.98;;
1475;SDS011;730;48.870;12.542;2024-01-30T08:35:11;14.50;;;13.00;;
1475;SDS011;730;48.870;12.542;2024-01-30T08:37:39;16.00;;;13.50;;
1475;SDS011;730;48.870;12.542;2024-01-30T08:40:09;15.27;;;13.60;;
1475;SDS011;730;48.870;12.542;2024-01-30T08:42:36;16.60;;;14.50;;
1475;SDS011;730;48.870;12.542;2024-01-30T08:45:02;14.93;;;13.43;;
1475;SDS011;730;48.870;12.542;2024-01-30T08:47:30;14.73;;;13.03;;
1475;SDS011;730;48.870;12.542;2024-01-30T08:49:56;15.60;;;14.03;;
1475;SDS011;730;48.870;12.542;2024-01-30T08:52:22;16.37;;;14.67;;
1475;SDS011;730;48.870;12.542;2024-01-30T08:54:48;17.30;;;14.50;;
1475;SDS011;730;48.870;12.542;2024-01-30T08:57:14;17.60;;;14.53;;
1475;SDS011;730;48.870;12.542;2024-01-30T08:59:40;17.10;;;14.60;;
1475;SDS011;730;48.870;12.542;2024-01-30T09:02:06;16.90;;;13.37;;
1475;SDS011;730;48.870;12.542;2024-01-30T09:04:32;16.93;;;14.83;;
1475;SDS011;730;48.870;12.542;2024-01-30T09:06:58;16.17;;;14.47;;
1475;SDS011;730;48.870;12.542;2024-01-30T09:09:24;15.17;;;13.60;;
1475;SDS011;730;48.870;12.542;2024-01-30T09:11:50;15.13;;;13.70;;
1475;SDS011;730;48.870;12.542;2024-01-30T09:14:16;17.03;;;14.67;;
1475;SDS011;730;48.870;12.542;2024-01-30T09:16:42;17.60;;;15.77;;
1475;SDS011;730;48.870;12.542;2024-01-30T09:19:08;17.70;;;14.70;;
1475;SDS011;730;48.870;12.542;2024-01-30T09:21:34;17.80;;;15.00;;
1475;SDS011;730;48.870;12.542;2024-01-30T09:24:01;17.73;;;15.80;;
1475;SDS011;730;48.870;12.542;2024-01-30T09:26:29;16.43;;;14.83;;
1475;SDS011;730;48.870;12.542;2024-01-30T09:28:55;16.73;;;14.60;;
1475;SDS011;730;48.870;12.542;2024-01-30T09:31:21;21.60;;;15.20;;
1475;SDS011;730;48.870;12.542;2024-01-30T09:33:47;17.33;;;14.77;;
1475;SDS011;730;48.870;12.542;2024-01-30T09:36:14;18.80;;;15.63;;
1475;SDS011;730;48.870;12.542;2024-01-30T09:38:44;16.93;;;14.10;;
1475;SDS011;730;48.870;12.542;2024-01-30T09:41:10;17.80;;;16.00;;
1475;SDS011;730;48.870;12.542;2024-01-30T09:43:37;17.47;;;15.03;;
1475;SDS011;730;48.870;12.542;2024-01-30T09:46:04;17.47;;;15.60;;
1475;SDS011;730;48.870;12.542;2024-01-30T09:48:33;18.60;;;15.90;;
1475;SDS011;730;48.870;12.542;2024-01-30T09:51:00;17.47;;;15.30;;
1475;SDS011;730;48.870;12.542;2024-01-30T09:53:27;18.43;;;15.50;;
1475;SDS011;730;48.870;12.542;2024-01-30T09:55:58;28.83;;;21.40;;
1475;SDS011;730;48.870;12.542;2024-01-30T09:58:24;19.43;;;17.37;;
1475;SDS011;730;48.870;12.542;2024-01-30T10:00:50;17.50;;;15.70;;
1475;SDS011;730;48.870;12.542;2024-01-30T10:03:16;18.10;;;16.20;;
1475;SDS011;730;48.870;12.542;2024-01-30T10:05:51;21.67;;;16.33;;
1475;SDS011;730;48.870;12.542;2024-01-30T10:08:20;19.20;;;16.40;;
1475;SDS011;730;48.870;12.542;2024-01-30T10:10:47;18.63;;;16.47;;
1475;SDS011;730;48.870;12.542;2024-01-30T10:13:15;19.23;;;16.77;;
1475;SDS011;730;48.870;12.542;2024-01-30T10:15:41;19.20;;;16.00;;
1475;SDS011;730;48.870;12.542;2024-01-30T10:18:08;18.90;;;17.03;;
1475;SDS011;730;48.870;12.542;2024-01-30T10:20:35;17.57;;;15.77;;
1475;SDS011;730;48.870;12.542;2024-01-30T10:23:02;19.57;;;17.50;;
1475;SDS011;730;48.870;12.542;2024-01-30T10:25:30;18.20;;;16.03;;
1475;SDS011;730;48.870;12.542;2024-01-30T10:27:57;16.40;;;14.77;;
1475;SDS011;730;48.870;12.542;2024-01-30T10:30:24;18.80;;;17.00;;
1475;SDS011;730;48.870;12.542;2024-01-30T10:32:51;18.07;;;15.10;;
1475;SDS011;730;48.870;12.542;2024-01-30T10:35:17;19.93;;;17.37;;
1475;SDS011;730;48.870;12.542;2024-01-30T10:37:43;19.13;;;17.13;;
1475;SDS011;730;48.870;12.542;2024-01-30T10:40:09;18.40;;;15.73;;
1475;SDS011;730;48.870;12.542;2024-01-30T10:42:40;18.17;;;16.30;;
1475;SDS011;730;48.870;12.542;2024-01-30T10:45:10;19.00;;;16.97;;
1475;SDS011;730;48.870;12.542;2024-01-30T10:47:43;15.93;;;14.40;;
1475;SDS011;730;48.870;12.542;2024-01-30T10:50:14;18.07;;;16.17;;
1475;SDS011;730;48.870;12.542;2024-01-30T10:52:41;20.20;;;16.47;;
1475;SDS011;730;48.870;12.542;2024-01-30T10:55:10;18.13;;;16.10;;
1475;SDS011;730;48.870;12.542;2024-01-30T10:57:37;18.73;;;16.73;;
1475;SDS011;730;48.870;12.542;2024-01-30T11:00:04;17.97;;;16.17;;
1475;SDS011;730;48.870;12.542;2024-01-30T11:02:38;18.17;;;16.33;;
1475;SDS011;730;48.870;12.542;2024-01-30T11:05:06;18.33;;;16.53;;
1475;SDS011;730;48.870;12.542;2024-01-30T11:07:32;18.33;;;16.53;;
1475;SDS011;730;48.870;12.542;2024-01-30T11:12:29;17.33;;;15.63;;
1475;SDS011;730;48.870;12.542;2024-01-30T11:15:10;18.23;;;16.43;;
1475;SDS011;730;48.870;12.542;2024-01-30T11:22:54;21.93;;;16.47;;
1475;SDS011;730;48.870;12.542;2024-01-30T11:25:22;18.57;;;16.67;;
1475;SDS011;730;48.870;12.542;2024-01-30T11:27:49;17.60;;;15.33;;
1475;SDS011;730;48.870;12.542;2024-01-30T11:30:27;20.17;;;16.97;;
1475;SDS011;730;48.870;12.542;2024-01-30T11:32:58;19.50;;;16.40;;
1475;SDS011;730;48.870;12.542;2024-01-30T11:35:35;17.63;;;15.83;;
1475;SDS011;730;48.870;12.542;2024-01-30T11:38:03;17.60;;;15.80;;
1475;SDS011;730;48.870;12.542;2024-01-30T11:40:36;17.47;;;15.67;;
1475;SDS011;730;48.870;12.542;2024-01-30T11:43:03;17.97;;;16.23;;
1475;SDS011;730;48.870;12.542;2024-01-30T11:45:31;16.80;;;14.90;;
1475;SDS011;730;48.870;12.542;2024-01-30T11:47:58;17.90;;;16.10;;
1475;SDS011;730;48.870;12.542;2024-01-30T11:50:29;15.63;;;14.13;;
1475;SDS011;730;48.870;12.542;2024-01-30T11:52:56;18.83;;;16.83;;
1475;SDS011;730;48.870;12.542;2024-01-30T11:55:23;19.60;;;15.33;;
1475;SDS011;730;48.870;12.542;2024-01-30T11:57:49;17.97;;;16.17;;
1475;SDS011;730;48.870;12.542;2024-01-30T12:00:15;18.10;;;16.30;;
1475;SDS011;730;48.870;12.542;2024-01-30T12:02:43;18.30;;;16.57;;
1475;SDS011;730;48.870;12.542;2024-01-30T12:05:10;23.03;;;16.00;;
1475;SDS011;730;48.870;12.542;2024-01-30T12:07:36;18.10;;;16.20;;
1475;SDS011;730;48.870;12.542;2024-01-30T12:10:02;20.17;;;16.70;;
1475;SDS011;730;48.870;12.542;2024-01-30T12:12:31;19.97;;;17.40;;
1475;SDS011;730;48.870;12.542;2024-01-30T12:14:57;17.87;;;15.40;;
1475;SDS011;730;48.870;12.542;2024-01-30T12:17:28;18.50;;;16.60;;
1475;SDS011;730;48.870;12.542;2024-01-30T12:22:37;17.30;;;15.10;;
1475;SDS011;730;48.870;12.542;2024-01-30T12:25:05;17.47;;;15.70;;
1475;SDS011;730;48.870;12.542;2024-01-30T12:27:34;18.60;;;15.60;;
1475;SDS011;730;48.870;12.542;2024-01-30T12:30:01;19.77;;;14.73;;
1475;SDS011;730;48.870;12.542;2024-01-30T12:32:30;19.53;;;17.43;;
1475;SDS011;730;48.870;12.542;2024-01-30T12:34:56;17.67;;;16.07;;
1475;SDS011;730;48.870;12.542;2024-01-30T12:37:24;19.27;;;16.30;;
1475;SDS011;730;48.870;12.542;2024-01-30T12:39:53;17.73;;;15.57;;
1475;SDS011;730;48.870;12.542;2024-01-30T12:42:19;17.80;;;15.07;;
1475;SDS011;730;48.870;12.542;2024-01-30T12:44:47;17.63;;;15.77;;
1475;SDS011;730;48.870;12.542;2024-01-30T12:47:14;18.67;;;16.40;;
1475;SDS011;730;48.870;12.542;2024-01-30T12:49:42;17.13;;;14.77;;
1475;SDS011;730;48.870;12.542;2024-01-30T12:52:19;16.57;;;14.63;;
1475;SDS011;730;48.870;12.542;2024-01-30T12:54:47;15.87;;;14.17;;
1475;SDS011;730;48.870;12.542;2024-01-30T12:57:14;17.07;;;15.47;;
1475;SDS011;730;48.870;12.542;2024-01-30T12:59:40;15.87;;;14.27;;
1475;SDS011;730;48.870;12.542;2024-01-30T13:02:06;18.03;;;16.33;;
1475;SDS011;730;48.870;12.542;2024-01-30T13:04:32;15.93;;;14.10;;
1475;SDS011;730;48.870;12.542;2024-01-30T13:06:58;18.13;;;15.13;;
1475;SDS011;730;48.870;12.542;2024-01-30T13:09:26;17.03;;;15.10;;
1475;SDS011;730;48.870;12.542;2024-01-30T13:11:52;18.07;;;15.77;;
1475;SDS011;730;48.870;12.542;2024-01-30T13:14:18;16.53;;;14.83;;
1475;SDS011;730;48.870;12.542;2024-01-30T13:16:45;16.77;;;15.10;;
1475;SDS011;730;48.870;12.542;2024-01-30T13:19:11;16.43;;;14.53;;
1475;SDS011;730;48.870;12.542;2024-01-30T13:21:37;16.73;;;14.87;;
1475;SDS011;730;48.870;12.542;2024-01-30T13:24:03;15.70;;;14.10;;
1475;SDS011;730;48.870;12.542;2024-01-30T13:26:32;15.60;;;13.93;;
1475;SDS011;730;48.870;12.542;2024-01-30T13:28:58;19.33;;;15.60;;
1475;SDS011;730;48.870;12.542;2024-01-30T13:31:24;14.93;;;13.33;;
1475;SDS011;730;48.870;12.542;2024-01-30T13:33:50;14.77;;;13.30;;
1475;SDS011;730;48.870;12.542;2024-01-30T13:36:16;16.17;;;14.63;;
1475;SDS011;730;48.870;12.542;2024-01-30T13:38:42;17.20;;;15.50;;
1475;SDS011;730;48.870;12.542;2024-01-30T13:41:08;16.17;;;14.57;;
1475;SDS011;730;48.870;12.542;2024-01-30T13:43:35;15.00;;;13.53;;
1475;SDS011;730;48.870;12.542;2024-01-30T13:46:01;15.57;;;13.93;;
1475;SDS011;730;48.870;12.542;2024-01-30T13:48:27;14.93;;;13.33;;
1475;SDS011;730;48.870;12.542;2024-01-30T13:50:53;16.57;;;14.90;;
1475;SDS011;730;48.870;12.542;2024-01-30T13:53:19;16.90;;;15.20;;
1475;SDS011;730;48.870;12.542;2024-01-30T13:55:46;16.40;;;14.70;;
1475;SDS011;730;48.870;12.542;2024-01-30T13:58:12;14.60;;;13.30;;
1475;SDS011;730;48.870;12.542;2024-01-30T14:00:38;16.67;;;14.90;;
1475;SDS011;730;48.870;12.542;2024-01-30T14:03:04;15.80;;;14.20;;
1475;SDS011;730;48.870;12.542;2024-01-30T14:05:31;16.47;;;14.87;;
1475;SDS011;730;48.870;12.542;2024-01-30T14:07:57;16.77;;;14.70;;
1475;SDS011;730;48.870;12.542;2024-01-30T14:10:23;16.10;;;14.57;;
1475;SDS011;730;48.870;12.542;2024-01-30T14:12:50;16.90;;;15.40;;
1475;SDS011;730;48.870;12.542;2024-01-30T14:15:16;17.13;;;15.33;;
1475;SDS011;730;48.870;12.542;2024-01-30T14:17:45;16.53;;;14.80;;
1475;SDS011;730;48.870;12.542;2024-01-30T14:20:14;17.87;;;15.90;;
1475;SDS011;730;48.870;12.542;2024-01-30T14:22:42;18.83;;;15.63;;
1475;SDS011;730;48.870;12.542;2024-01-30T14:25:08;17.40;;;14.23;;
1475;SDS011;730;48.870;12.542;2024-01-30T14:27:35;16.33;;;14.73;;
1475;SDS011;730;48.870;12.542;2024-01-30T14:30:02;18.13;;;15.03;;
1475;SDS011;730;48.870;12.542;2024-01-30T14:32:28;15.77;;;14.20;;
1475;SDS011;730;48.870;12.542;2024-01-30T14:34:54;17.00;;;15.20;;
1475;SDS011;730;48.870;12.542;2024-01-30T14:37:21;16.10;;;13.40;;
1475;SDS011;730;48.870;12.542;2024-01-30T14:39:47;16.40;;;14.70;;
1475;SDS011;730;48.870;12.542;2024-01-30T14:42:14;16.57;;;14.93;;
1475;SDS011;730;48.870;12.542;2024-01-30T14:44:41;14.97;;;13.40;;
1475;SDS011;730;48.870;12.542;2024-01-30T14:47:07;15.87;;;14.17;;
1475;SDS011;730;48.870;12.542;2024-01-30T14:49:34;16.03;;;14.63;;
1475;SDS011;730;48.870;12.542;2024-01-30T14:52:00;15.13;;;13.63;;
1475;SDS011;730;48.870;12.542;2024-01-30T14:54:26;16.93;;;15.10;;
1475;SDS011;730;48.870;12.542;2024-01-30T14:56:53;15.10;;;13.70;;